Estación de Quillota
Ultimos registro cada 15 minutos 29
| N° | Estación | Fecha / Hora | Temperatura | Humedad | Lluvia | Velocidad | Dirección | Radiación | Presion |
| 29 | Quillota | 10-05-2026 07:15 | 5,2 | 77 | 0 | 0,4 | 257 | 0 | 1012,3 |
| 28 | Quillota | 10-05-2026 07:00 | 6,1 | 80 | 0 | 0,4 | 170 | 0 | 1012,4 |
| 27 | Quillota | 10-05-2026 06:45 | 6 | 83 | 0 | 0 | 173 | 0 | 1012,4 |
| 26 | Quillota | 10-05-2026 06:30 | 5,6 | 85 | 0 | 0,9 | 180 | 0 | 1012,4 |
| 25 | Quillota | 10-05-2026 06:15 | 5,2 | 82 | 0 | 1,3 | 125 | 0 | 1012,3 |
| 24 | Quillota | 10-05-2026 06:00 | 6,4 | 86 | 0 | 0 | 216 | 0 | 1012,1 |
| 23 | Quillota | 10-05-2026 05:45 | 5,4 | 86 | 0 | 0 | 250 | 0 | 1011,8 |
| 22 | Quillota | 10-05-2026 05:30 | 5,4 | 89 | 0 | 0 | 104 | 0 | 1011,5 |
| 21 | Quillota | 10-05-2026 05:15 | 4,8 | 90 | 0 | 0 | 80 | 0 | 1011,6 |
| 20 | Quillota | 10-05-2026 05:00 | 4,3 | 91 | 0 | 0,9 | 111 | 0 | 1011,5 |
| 19 | Quillota | 10-05-2026 04:45 | 4,7 | 92 | 0 | 0 | 123 | 0 | 1011,5 |
| 18 | Quillota | 10-05-2026 04:30 | 4,2 | 89 | 0 | 0 | 176 | 0 | 1011,6 |
| 17 | Quillota | 10-05-2026 04:15 | 3,8 | 90 | 0 | 0 | 17 | 0 | 1011,9 |
| 16 | Quillota | 10-05-2026 04:00 | 3,9 | 91 | 0 | 0 | 360 | 0 | 1012 |
| 15 | Quillota | 10-05-2026 03:45 | 4,1 | 89 | 0 | 0,9 | 101 | 0 | 1012,3 |
| 14 | Quillota | 10-05-2026 03:30 | 5,3 | 90 | 0 | 0,4 | 134 | 0 | 1012,5 |
| 13 | Quillota | 10-05-2026 03:15 | 3,7 | 90 | 0 | 0,9 | 102 | 0 | 1012,6 |
| 12 | Quillota | 10-05-2026 03:00 | 4,2 | 90 | 0 | 0 | 100 | 0 | 1012,5 |
| 11 | Quillota | 10-05-2026 02:45 | 3,9 | 90 | 0 | 0 | 100 | 0 | 1012,6 |
| 10 | Quillota | 10-05-2026 02:30 | 4,2 | 89 | 0 | 0 | 163 | 0 | 1012,7 |
| 9 | Quillota | 10-05-2026 02:15 | 4,1 | 88 | 0 | 0,4 | 261 | 0 | 1012,7 |
| 8 | Quillota | 10-05-2026 02:00 | 4,8 | 88 | 0 | 0 | 261 | 0 | 1012,5 |
| 7 | Quillota | 10-05-2026 01:45 | 5,7 | 88 | 0 | 0 | 268 | 0 | 1012,6 |
| 6 | Quillota | 10-05-2026 01:30 | 6,4 | 89 | 0 | 0 | 234 | 0 | 1012,8 |
| 5 | Quillota | 10-05-2026 01:00 | 5,7 | 88 | 0 | 0,4 | 239 | 0 | 1012,9 |
| 4 | Quillota | 10-05-2026 00:45 | 6,1 | 88 | 0 | 0 | 239 | 0 | 1013,1 |
| 3 | Quillota | 10-05-2026 00:30 | 6,9 | 87 | 0 | 0 | 239 | 0 | 1013,2 |
| 2 | Quillota | 10-05-2026 00:15 | 7,3 | 92 | 0 | 0,4 | 152 | 0 | 1013,2 |
| 1 | Quillota | 10-05-2026 00:00 | 6,6 | 89 | 0 | 0 | 150 | 0 | 1013 |